createdAt,value
2023-03-12T00:02:00.647Z,11.13
2023-03-12T00:04:28.036Z,6.77
2023-03-12T00:06:54.811Z,8.83
2023-03-12T00:09:21.549Z,7.40
2023-03-12T00:11:48.343Z,7.83
2023-03-12T00:14:15.440Z,4.43
2023-03-12T00:16:42.251Z,3.43
2023-03-12T00:19:12.641Z,3.50
2023-03-12T00:21:39.741Z,3.33
2023-03-12T00:24:08.099Z,3.70
2023-03-12T00:26:34.932Z,3.30
2023-03-12T00:29:01.634Z,2.87
2023-03-12T00:31:31.763Z,3.27
2023-03-12T00:33:59.467Z,3.40
2023-03-12T00:36:29.493Z,3.07
2023-03-12T00:38:57.568Z,2.93
2023-03-12T00:41:25.083Z,3.30
2023-03-12T00:43:53.044Z,3.73
2023-03-12T00:46:20.544Z,3.23
2023-03-12T00:48:47.366Z,3.33
2023-03-12T00:51:14.307Z,3.90
2023-03-12T00:53:41.005Z,4.37
2023-03-12T00:56:08.003Z,3.83
2023-03-12T00:58:34.700Z,3.50
2023-03-12T01:01:01.629Z,3.60
2023-03-12T01:03:28.354Z,3.37
2023-03-12T01:05:55.337Z,3.23
2023-03-12T01:08:23.101Z,3.57
2023-03-12T01:10:50.233Z,3.23
2023-03-12T01:13:17.464Z,3.47
2023-03-12T01:15:44.244Z,2.60
2023-03-12T01:18:11.543Z,3.63
2023-03-12T01:20:40.342Z,3.23
2023-03-12T01:23:07.796Z,3.23
2023-03-12T01:25:36.440Z,3.20
2023-03-12T01:28:03.622Z,3.00
2023-03-12T01:30:30.964Z,4.00
2023-03-12T01:32:58.168Z,3.20
2023-03-12T01:35:25.178Z,2.70
2023-03-12T01:37:53.080Z,3.00
2023-03-12T01:40:25.381Z,3.03
2023-03-12T01:42:58.634Z,3.20
2023-03-12T01:46:03.295Z,2.70
2023-03-12T01:48:35.562Z,2.50
2023-03-12T01:51:03.149Z,2.97
2023-03-12T01:53:30.762Z,3.23
2023-03-12T01:56:00.365Z,3.10
2023-03-12T01:58:29.593Z,2.67
2023-03-12T02:00:56.423Z,2.90
2023-03-12T02:03:23.260Z,3.20
2023-03-12T02:06:04.673Z,3.30
2023-03-12T02:08:31.409Z,2.97
2023-03-12T02:10:58.154Z,2.77
2023-03-12T02:13:25.028Z,3.00
2023-03-12T02:15:51.884Z,3.00
2023-03-12T02:18:20.001Z,2.80
2023-03-12T02:21:15.797Z,2.80
2023-03-12T02:24:03.902Z,2.50
2023-03-12T02:26:31.646Z,3.07
2023-03-12T02:29:00.587Z,2.90
2023-03-12T02:31:33.069Z,2.90
2023-03-12T02:34:00.638Z,3.23
2023-03-12T02:36:27.978Z,3.07
2023-03-12T02:38:55.848Z,2.83
2023-03-12T02:41:30.933Z,3.10
2023-03-12T02:44:04.188Z,3.03
2023-03-12T02:46:36.602Z,3.00
2023-03-12T02:49:03.993Z,2.90
2023-03-12T02:51:30.804Z,3.03
2023-03-12T02:53:57.626Z,3.17
2023-03-12T02:56:27.271Z,2.93
2023-03-12T02:58:54.277Z,3.20
2023-03-12T03:01:21.185Z,3.13
2023-03-12T03:03:48.513Z,3.30
2023-03-12T03:06:15.936Z,3.60
2023-03-12T03:08:43.355Z,3.33
2023-03-12T03:11:10.571Z,3.70
2023-03-12T03:13:37.328Z,3.67
2023-03-12T03:16:04.426Z,3.57
2023-03-12T03:18:32.570Z,3.60
2023-03-12T03:21:02.156Z,4.10
2023-03-12T03:23:28.966Z,4.10
2023-03-12T03:25:55.941Z,4.20
2023-03-12T03:28:24.192Z,4.60
2023-03-12T03:30:55.187Z,4.53
2023-03-12T03:33:21.936Z,4.30
2023-03-12T03:35:49.153Z,4.77
2023-03-12T03:38:16.299Z,4.63
2023-03-12T03:40:43.692Z,4.17
2023-03-12T03:43:10.426Z,4.60
2023-03-12T03:45:37.150Z,4.70
2023-03-12T03:48:04.027Z,4.90
2023-03-12T03:50:31.468Z,5.53
2023-03-12T03:52:58.269Z,5.10
2023-03-12T03:55:25.756Z,5.50
2023-03-12T03:57:52.470Z,5.93
2023-03-12T04:00:19.601Z,5.97
2023-03-12T04:02:46.266Z,6.00
2023-03-12T04:05:13.230Z,6.00
2023-03-12T04:07:40.035Z,5.97
2023-03-12T04:10:07.721Z,6.03
2023-03-12T04:12:34.488Z,6.53
2023-03-12T04:15:01.276Z,6.30
2023-03-12T04:17:28.153Z,5.73
2023-03-12T04:19:54.881Z,6.40
2023-03-12T04:22:21.700Z,6.23
2023-03-12T04:24:48.551Z,6.20
2023-03-12T04:27:15.407Z,7.00
2023-03-12T04:29:42.213Z,6.83
2023-03-12T04:32:08.930Z,7.40
2023-03-12T04:34:35.681Z,7.40
2023-03-12T04:37:02.963Z,8.37
2023-03-12T04:39:29.757Z,8.23
2023-03-12T04:41:56.482Z,8.33
2023-03-12T04:44:23.306Z,8.40
2023-03-12T04:46:50.200Z,8.97
2023-03-12T04:49:17.040Z,9.20
2023-03-12T04:51:43.797Z,9.70
2023-03-12T04:54:10.509Z,9.60
2023-03-12T04:56:37.236Z,9.30
2023-03-12T04:59:04.942Z,9.33
2023-03-12T05:01:34.004Z,9.83
2023-03-12T05:04:02.243Z,10.23
2023-03-12T05:06:29.384Z,10.17
2023-03-12T05:08:58.164Z,11.73
2023-03-12T05:11:25.902Z,10.20
2023-03-12T05:13:52.743Z,10.83
2023-03-12T05:16:19.769Z,12.07
2023-03-12T05:18:47.293Z,10.37
2023-03-12T05:21:19.210Z,12.37
2023-03-12T05:23:46.668Z,11.67
2023-03-12T05:26:23.458Z,12.67
2023-03-12T05:28:50.239Z,13.73
2023-03-12T05:31:18.055Z,13.43
2023-03-12T05:33:46.022Z,12.20
2023-03-12T05:36:13.614Z,11.10
2023-03-12T05:38:41.887Z,12.20
2023-03-12T05:41:16.818Z,12.30
2023-03-12T05:43:43.576Z,11.43
2023-03-12T05:46:10.751Z,12.50
2023-03-12T05:48:37.522Z,12.97
2023-03-12T05:51:04.496Z,13.33
2023-03-12T05:53:31.370Z,12.83
2023-03-12T05:56:07.259Z,14.43
2023-03-12T05:58:35.885Z,12.70
2023-03-12T06:01:02.867Z,12.87
2023-03-12T06:03:29.708Z,14.20
2023-03-12T06:05:57.083Z,13.57
2023-03-12T06:08:24.790Z,13.73
2023-03-12T06:10:53.987Z,12.77
2023-03-12T06:13:22.448Z,12.50
2023-03-12T06:15:50.010Z,12.17
2023-03-12T06:18:16.798Z,12.07
2023-03-12T06:20:43.618Z,11.97
2023-03-12T06:23:10.396Z,11.20
2023-03-12T06:25:37.602Z,12.00
2023-03-12T06:28:04.471Z,10.97
2023-03-12T06:30:31.999Z,11.50
2023-03-12T06:32:58.748Z,9.83
2023-03-12T06:35:25.507Z,10.37
2023-03-12T06:37:53.475Z,10.53
2023-03-12T06:40:20.574Z,11.40
2023-03-12T06:42:47.497Z,10.47
2023-03-12T06:45:14.180Z,11.57
2023-03-12T06:47:41.107Z,10.77
2023-03-12T06:50:08.432Z,10.40
2023-03-12T06:52:35.105Z,10.37
2023-03-12T06:55:01.934Z,9.63
2023-03-12T06:57:28.702Z,9.87
2023-03-12T06:59:55.438Z,9.27
2023-03-12T07:02:22.280Z,8.77
2023-03-12T07:04:49.290Z,9.20
2023-03-12T07:07:17.079Z,7.97
2023-03-12T07:09:43.859Z,10.57
2023-03-12T07:12:10.624Z,10.07
2023-03-12T07:14:37.394Z,9.43
2023-03-12T07:17:04.265Z,12.80
2023-03-12T07:19:31.099Z,10.70
2023-03-12T07:21:58.089Z,10.53
2023-03-12T07:24:24.955Z,8.03
2023-03-12T07:26:51.755Z,6.67
2023-03-12T07:29:18.632Z,5.57
2023-03-12T07:31:45.679Z,5.40
2023-03-12T07:34:12.722Z,4.93
2023-03-12T07:36:39.773Z,5.20
2023-03-12T07:39:06.756Z,5.83
2023-03-12T07:41:35.273Z,5.87
2023-03-12T07:44:02.285Z,5.20
2023-03-12T07:46:29.270Z,5.40
2023-03-12T07:48:56.312Z,5.77
2023-03-12T07:51:23.202Z,5.47
2023-03-12T07:53:58.005Z,5.53
2023-03-12T07:56:24.987Z,5.00
2023-03-12T07:58:52.789Z,5.57
2023-03-12T08:01:19.763Z,5.50
2023-03-12T08:03:46.709Z,5.23
2023-03-12T08:06:13.826Z,4.90
2023-03-12T08:08:42.406Z,4.43
2023-03-12T08:11:09.864Z,4.50
2023-03-12T08:13:36.734Z,3.90
2023-03-12T08:16:04.165Z,4.20
2023-03-12T08:18:30.948Z,3.73
2023-03-12T08:20:57.801Z,3.40
2023-03-12T08:23:27.960Z,3.20
2023-03-12T08:25:55.437Z,3.00
2023-03-12T08:28:23.722Z,4.00
2023-03-12T08:30:53.495Z,3.10
2023-03-12T08:33:21.500Z,2.90
2023-03-12T08:35:49.502Z,2.50
2023-03-12T08:38:17.788Z,2.00
2023-03-12T08:40:44.889Z,2.30
2023-03-12T08:43:11.852Z,2.17
2023-03-12T08:45:39.004Z,2.10
2023-03-12T08:48:07.094Z,1.90
2023-03-12T08:50:34.094Z,1.93
2023-03-12T08:53:00.832Z,1.37
2023-03-12T08:55:30.650Z,1.10
2023-03-12T08:57:57.509Z,0.90
2023-03-12T09:00:25.052Z,0.90
2023-03-12T09:02:53.543Z,0.80
2023-03-12T09:05:20.854Z,0.70
2023-03-12T09:07:47.680Z,0.93
2023-03-12T09:10:14.478Z,0.80
2023-03-12T09:12:41.295Z,1.27
2023-03-12T09:15:12.439Z,0.67
2023-03-12T09:17:39.573Z,0.90
2023-03-12T09:20:08.828Z,0.93
2023-03-12T09:22:37.413Z,1.07
2023-03-12T09:25:05.829Z,1.50
2023-03-12T09:27:37.271Z,1.10
2023-03-12T09:30:05.583Z,1.37
2023-03-12T09:32:32.340Z,1.40
2023-03-12T09:34:59.333Z,0.90
2023-03-12T09:37:26.369Z,1.27
2023-03-12T09:39:53.950Z,1.20
2023-03-12T09:42:25.751Z,1.47
2023-03-12T09:44:55.021Z,0.87
2023-03-12T09:47:31.823Z,1.20
2023-03-12T09:50:21.632Z,1.40
2023-03-12T09:53:03.232Z,0.90
2023-03-12T09:55:38.935Z,1.10
2023-03-12T09:58:21.069Z,1.50
2023-03-12T10:00:48.190Z,1.33
2023-03-12T10:03:26.878Z,1.50
2023-03-12T10:06:06.597Z,1.77
2023-03-12T10:08:38.872Z,0.97
2023-03-12T10:11:08.490Z,1.27
2023-03-12T10:13:52.580Z,1.60
2023-03-12T10:16:26.084Z,1.50
2023-03-12T10:19:11.373Z,1.00
2023-03-12T10:21:44.866Z,1.37
2023-03-12T10:24:31.584Z,1.10
2023-03-12T10:26:59.613Z,1.43
2023-03-12T10:29:37.455Z,1.40
2023-03-12T10:32:16.734Z,0.80
2023-03-12T10:34:47.829Z,2.27
2023-03-12T10:37:18.250Z,1.80
2023-03-12T10:39:46.036Z,3.00
2023-03-12T10:42:17.249Z,2.33
2023-03-12T10:44:45.258Z,3.73
2023-03-12T10:47:40.319Z,3.27
2023-03-12T10:50:17.053Z,7.50
2023-03-12T10:52:45.634Z,4.87
2023-03-12T10:55:24.411Z,1.23
2023-03-12T10:57:51.463Z,1.00
2023-03-12T11:00:22.069Z,1.63
2023-03-12T11:02:58.699Z,1.23
2023-03-12T11:05:32.085Z,1.93
2023-03-12T11:08:02.620Z,0.57
2023-03-12T11:10:46.922Z,0.73
2023-03-12T11:13:32.631Z,1.80
2023-03-12T11:16:17.908Z,1.50
2023-03-12T11:18:56.386Z,2.77
2023-03-12T11:21:23.794Z,2.60
2023-03-12T11:23:59.436Z,3.63
2023-03-12T11:26:53.751Z,3.57
2023-03-12T11:29:31.474Z,1.30
2023-03-12T11:32:05.156Z,1.77
2023-03-12T11:34:35.449Z,2.67
2023-03-12T11:37:50.491Z,1.00
2023-03-12T11:40:54.988Z,1.83
2023-03-12T11:43:44.292Z,0.90
2023-03-12T11:46:26.784Z,1.60
2023-03-12T11:49:31.607Z,2.93
2023-03-12T11:52:43.140Z,1.70
2023-03-12T11:55:21.917Z,1.53
2023-03-12T11:58:08.781Z,1.53
2023-03-12T12:00:49.950Z,1.47
2023-03-12T12:03:51.942Z,0.90
2023-03-12T12:06:24.818Z,1.30
2023-03-12T12:09:19.343Z,1.50
2023-03-12T12:12:08.293Z,1.00
2023-03-12T12:15:00.471Z,2.00
2023-03-12T12:18:00.204Z,2.00
2023-03-12T12:20:42.981Z,1.73
2023-03-12T12:23:17.931Z,1.33
2023-03-12T12:26:00.257Z,1.37
2023-03-12T12:28:45.724Z,1.47
2023-03-12T12:31:28.498Z,1.57
2023-03-12T12:34:14.253Z,1.27
2023-03-12T12:36:48.588Z,1.30
2023-03-12T12:39:34.076Z,1.17
2023-03-12T12:42:06.152Z,0.90
2023-03-12T12:44:48.636Z,1.20
2023-03-12T12:47:20.215Z,1.40
2023-03-12T12:49:50.995Z,1.10
2023-03-12T12:52:21.999Z,1.00
2023-03-12T12:54:51.425Z,1.20
2023-03-12T12:57:24.266Z,1.20
2023-03-12T13:00:21.964Z,1.10
2023-03-12T13:02:50.402Z,1.27
2023-03-12T13:05:28.545Z,1.10
2023-03-12T13:07:55.680Z,0.90
2023-03-12T13:10:34.454Z,1.10
2023-03-12T13:13:10.321Z,1.53
2023-03-12T13:15:43.737Z,1.43
2023-03-12T13:18:28.565Z,1.40
2023-03-12T13:20:55.370Z,1.30
2023-03-12T13:23:25.315Z,0.93
2023-03-12T13:26:20.408Z,1.30
2023-03-12T13:28:56.837Z,1.50
2023-03-12T13:31:29.728Z,1.07
2023-03-12T13:34:08.934Z,1.10
2023-03-12T13:36:38.935Z,1.37
2023-03-12T13:39:08.673Z,1.13
2023-03-12T13:41:41.279Z,1.43
2023-03-12T13:44:31.369Z,1.37
2023-03-12T13:47:25.654Z,1.40
2023-03-12T13:49:57.716Z,1.17
2023-03-12T13:52:27.023Z,1.40
2023-03-12T13:55:02.931Z,1.53
2023-03-12T13:57:46.837Z,1.20
2023-03-12T14:00:20.649Z,1.47
2023-03-12T14:03:13.582Z,1.20
2023-03-12T14:06:09.922Z,1.67
2023-03-12T14:09:10.492Z,1.40
2023-03-12T14:11:49.482Z,1.23
2023-03-12T14:14:44.163Z,1.37
2023-03-12T14:17:20.374Z,1.10
2023-03-12T14:19:51.435Z,0.90
2023-03-12T14:22:22.793Z,1.20
2023-03-12T14:25:05.019Z,1.20
2023-03-12T14:27:33.727Z,1.67
2023-03-12T14:30:25.706Z,1.33
2023-03-12T14:33:01.234Z,0.83
2023-03-12T14:35:38.798Z,1.17
2023-03-12T14:38:07.223Z,1.23
2023-03-12T14:40:46.186Z,1.23
2023-03-12T14:43:22.269Z,1.17
2023-03-12T14:45:58.562Z,1.10
2023-03-12T14:48:35.747Z,1.20
2023-03-12T14:51:06.535Z,1.63
2023-03-12T14:53:35.893Z,1.03
2023-03-12T14:56:32.992Z,1.13
2023-03-12T14:59:19.273Z,1.33
2023-03-12T15:01:46.845Z,1.00
2023-03-12T15:04:18.602Z,1.17
2023-03-12T15:06:49.097Z,1.83
2023-03-12T15:09:25.745Z,1.80
2023-03-12T15:11:57.660Z,1.53
2023-03-12T15:14:26.557Z,1.40
2023-03-12T15:16:53.967Z,1.40
2023-03-12T15:19:27.422Z,1.20
2023-03-12T15:21:54.705Z,1.07
2023-03-12T15:24:21.706Z,1.60
2023-03-12T15:26:48.414Z,1.53
2023-03-12T15:29:28.885Z,1.87
2023-03-12T15:32:00.377Z,1.67
2023-03-12T15:34:36.551Z,1.20
2023-03-12T15:37:33.908Z,1.57
2023-03-12T15:40:06.257Z,1.57
2023-03-12T15:42:40.076Z,1.73
2023-03-12T15:45:21.328Z,1.13
2023-03-12T15:47:49.531Z,1.30
2023-03-12T15:50:23.753Z,1.57
2023-03-12T15:53:01.197Z,1.73
2023-03-12T15:55:30.573Z,1.57
2023-03-12T15:57:59.080Z,1.47
2023-03-12T16:00:29.267Z,1.70
2023-03-12T16:03:06.081Z,1.80
2023-03-12T16:05:36.180Z,1.33
2023-03-12T16:08:14.086Z,1.77
2023-03-12T16:10:40.880Z,2.27
2023-03-12T16:13:13.828Z,1.53
2023-03-12T16:15:40.798Z,1.50
2023-03-12T16:18:16.672Z,1.83
2023-03-12T16:20:44.794Z,1.57
2023-03-12T16:23:12.310Z,1.70
2023-03-12T16:25:41.722Z,1.47
2023-03-12T16:28:13.529Z,1.33
2023-03-12T16:30:41.045Z,1.13
2023-03-12T16:33:09.378Z,1.67
2023-03-12T16:35:36.518Z,1.63
2023-03-12T16:38:03.640Z,1.50
2023-03-12T16:40:36.057Z,1.60
2023-03-12T16:43:06.676Z,1.77
2023-03-12T16:45:36.628Z,2.53
2023-03-12T16:48:06.422Z,2.20
2023-03-12T16:50:33.381Z,2.00
2023-03-12T16:53:02.463Z,2.30
2023-03-12T16:55:32.371Z,2.03
2023-03-12T16:58:01.481Z,1.97
2023-03-12T17:00:32.604Z,2.53
2023-03-12T17:03:00.645Z,1.87
2023-03-12T17:05:29.477Z,2.10
2023-03-12T17:07:57.124Z,1.80
2023-03-12T17:10:24.802Z,1.90
2023-03-12T17:12:52.899Z,2.20
2023-03-12T17:15:27.076Z,2.60
2023-03-12T17:17:55.734Z,2.30
2023-03-12T17:20:24.266Z,2.93
2023-03-12T17:22:51.167Z,2.30
2023-03-12T17:25:26.586Z,2.40
2023-03-12T17:27:53.991Z,2.47
2023-03-12T17:30:22.003Z,2.43
2023-03-12T17:32:50.219Z,1.87
2023-03-12T17:35:18.894Z,2.10
2023-03-12T17:37:48.319Z,2.60
2023-03-12T17:40:15.735Z,2.50
2023-03-12T17:42:42.576Z,2.30
2023-03-12T17:45:10.508Z,2.70
2023-03-12T17:47:37.633Z,4.03
2023-03-12T17:50:05.631Z,4.70
2023-03-12T17:52:33.086Z,3.03
2023-03-12T17:55:00.718Z,2.07
2023-03-12T17:57:28.206Z,2.97
2023-03-12T17:59:55.232Z,2.60
2023-03-12T18:02:22.570Z,2.57
2023-03-12T18:04:49.363Z,2.30
2023-03-12T18:07:16.263Z,2.50
2023-03-12T18:09:43.318Z,2.90
2023-03-12T18:12:11.201Z,3.13
2023-03-12T18:14:38.493Z,2.50
2023-03-12T18:17:05.404Z,2.60
2023-03-12T18:19:34.109Z,2.33
2023-03-12T18:22:02.172Z,2.97
2023-03-12T18:24:29.234Z,2.43
2023-03-12T18:26:56.303Z,2.67
2023-03-12T18:29:23.434Z,2.53
2023-03-12T18:31:50.177Z,2.87
2023-03-12T18:34:17.045Z,3.67
2023-03-12T18:36:43.767Z,3.47
2023-03-12T18:39:10.615Z,3.30
2023-03-12T18:41:39.431Z,3.17
2023-03-12T18:44:07.592Z,2.70
2023-03-12T18:46:34.625Z,2.43
2023-03-12T18:49:08.948Z,2.50
2023-03-12T18:51:36.099Z,2.30
2023-03-12T18:54:03.005Z,2.57
2023-03-12T18:56:29.869Z,2.13
2023-03-12T18:58:56.726Z,2.67
2023-03-12T19:01:23.488Z,2.50
2023-03-12T19:03:50.348Z,2.70
2023-03-12T19:06:17.728Z,2.43
2023-03-12T19:08:44.759Z,2.83
2023-03-12T19:11:13.845Z,3.07
2023-03-12T19:13:40.877Z,3.03
2023-03-12T19:16:09.586Z,2.47
2023-03-12T19:18:37.958Z,2.30
2023-03-12T19:21:07.255Z,3.10
2023-03-12T19:23:34.025Z,2.97
2023-03-12T19:26:00.830Z,3.10
2023-03-12T19:28:27.840Z,3.00
2023-03-12T19:31:02.623Z,3.20
2023-03-12T19:33:30.022Z,3.10
2023-03-12T19:35:57.479Z,3.07
2023-03-12T19:38:24.342Z,3.40
2023-03-12T19:40:56.243Z,3.07
2023-03-12T19:43:23.812Z,3.07
2023-03-12T19:45:50.676Z,3.27
2023-03-12T19:48:17.473Z,2.97
2023-03-12T19:50:47.592Z,2.87
2023-03-12T19:53:14.421Z,3.50
2023-03-12T19:55:41.092Z,3.43
2023-03-12T19:58:08.453Z,3.20
2023-03-12T20:00:35.221Z,3.13
2023-03-12T20:03:02.147Z,4.43
2023-03-12T20:05:28.978Z,4.00
2023-03-12T20:07:56.818Z,4.37
2023-03-12T20:10:23.657Z,4.00
2023-03-12T20:12:50.359Z,3.63
2023-03-12T20:15:17.232Z,3.53
2023-03-12T20:17:44.159Z,3.23
2023-03-12T20:20:11.528Z,3.10
2023-03-12T20:22:38.354Z,3.17
2023-03-12T20:25:06.154Z,3.57
2023-03-12T20:27:34.216Z,2.77
2023-03-12T20:30:00.990Z,2.80
2023-03-12T20:32:28.685Z,3.00
2023-03-12T20:34:55.452Z,3.40
2023-03-12T20:37:22.181Z,2.70
2023-03-12T20:39:49.007Z,2.63
2023-03-12T20:42:15.806Z,3.20
2023-03-12T20:44:42.635Z,3.13
2023-03-12T20:47:09.423Z,3.20
2023-03-12T20:49:36.212Z,3.07
2023-03-12T20:52:03.452Z,4.13
2023-03-12T20:54:30.345Z,3.37
2023-03-12T20:56:57.178Z,3.73
2023-03-12T20:59:24.107Z,3.70
2023-03-12T21:01:50.860Z,4.90
2023-03-12T21:04:17.632Z,4.57
2023-03-12T21:06:45.019Z,4.37
2023-03-12T21:09:11.738Z,4.47
2023-03-12T21:11:40.075Z,4.23
2023-03-12T21:14:06.800Z,4.23
2023-03-12T21:16:33.764Z,4.73
2023-03-12T21:19:00.539Z,4.47
2023-03-12T21:21:27.281Z,3.83
2023-03-12T21:23:54.148Z,4.43
2023-03-12T21:26:21.882Z,4.80
2023-03-12T21:28:48.724Z,4.60
2023-03-12T21:31:16.887Z,3.97
2023-03-12T21:33:43.886Z,6.10
2023-03-12T21:36:12.944Z,4.10
2023-03-12T21:38:42.656Z,4.90
2023-03-12T21:41:14.692Z,3.60
2023-03-12T21:43:42.301Z,4.13
2023-03-12T21:46:14.922Z,4.00
2023-03-12T21:48:44.798Z,5.73
2023-03-12T21:51:13.333Z,3.50
2023-03-12T21:53:40.223Z,2.83
2023-03-12T21:56:08.315Z,4.03
2023-03-12T21:58:35.806Z,2.90
2023-03-12T22:01:07.201Z,2.27
2023-03-12T22:03:34.512Z,2.40
2023-03-12T22:06:01.280Z,4.60
2023-03-12T22:08:28.096Z,3.47
2023-03-12T22:10:54.885Z,2.60
2023-03-12T22:13:21.717Z,2.87
2023-03-12T22:15:55.125Z,3.00
2023-03-12T22:18:22.840Z,3.23
2023-03-12T22:20:53.156Z,3.13
2023-03-12T22:23:20.408Z,2.50
2023-03-12T22:25:47.285Z,2.97
2023-03-12T22:28:14.948Z,2.90
2023-03-12T22:30:41.932Z,2.30
2023-03-12T22:33:09.441Z,2.37
2023-03-12T22:35:46.404Z,2.47
2023-03-12T22:38:13.709Z,3.00
2023-03-12T22:40:41.192Z,2.30
2023-03-12T22:43:08.081Z,2.53
2023-03-12T22:45:35.524Z,1.53
2023-03-12T22:48:02.337Z,1.73
2023-03-12T22:50:29.808Z,1.90
2023-03-12T22:52:56.706Z,2.20
2023-03-12T22:55:23.484Z,2.53
2023-03-12T22:57:50.229Z,1.90
2023-03-12T23:00:22.653Z,2.00
2023-03-12T23:02:50.371Z,2.00
2023-03-12T23:05:17.209Z,1.90
2023-03-12T23:07:44.216Z,1.50
2023-03-12T23:10:11.453Z,1.83
2023-03-12T23:12:38.187Z,1.70
2023-03-12T23:15:05.733Z,1.80
2023-03-12T23:17:32.470Z,2.23
2023-03-12T23:19:59.174Z,2.40
2023-03-12T23:22:25.926Z,1.97
2023-03-12T23:24:53.264Z,2.07
2023-03-12T23:27:20.398Z,1.93
2023-03-12T23:29:47.327Z,2.33
2023-03-12T23:32:14.077Z,1.70
2023-03-12T23:34:40.774Z,1.87
2023-03-12T23:37:07.521Z,1.47
2023-03-12T23:39:45.038Z,1.70
2023-03-12T23:42:18.731Z,1.40
2023-03-12T23:44:46.323Z,1.50
2023-03-12T23:47:13.175Z,2.00
2023-03-12T23:49:39.870Z,1.63
2023-03-12T23:52:06.742Z,1.57
2023-03-12T23:54:33.469Z,1.77
2023-03-12T23:57:00.240Z,1.80
2023-03-12T23:59:27.101Z,1.57
